Time;durP1;ratioP1;P1;durP2;ratioP2;P2;SDS_P1;SDS_P2;PMS_P1;PMS_P2;Temp;Humidity;BMP_temperature;BMP_pressure;BME280_temperature;BME280_humidity;BME280_pressure;Samples;Min_cycle;Max_cycle;Signal;HPM_P1;HPM_P2
2023/01/31 00:01:29;;;;;;;22.08;4.32;;;3.70;99.90;;;;;;5026267;28;20528;-74
2023/01/31 00:03:57;;;;;;;28.42;5.10;;;3.60;99.90;;;;;;5025536;28;20445;-74
2023/01/31 00:06:32;;;;;;;25.23;5.30;;;5.60;99.90;;;;;;5025463;28;20418;-74
2023/01/31 00:08:59;;;;;;;23.23;4.55;;;5.60;99.90;;;;;;5026684;28;21272;-74
2023/01/31 00:11:27;;;;;;;23.48;3.63;;;3.60;99.90;;;;;;5026270;28;20423;-75
2023/01/31 00:13:53;;;;;;;24.38;4.65;;;3.50;99.90;;;;;;5026671;28;20500;-74
2023/01/31 00:16:20;;;;;;;25.92;5.15;;;4.40;99.90;;;;;;5026726;28;20450;-75
2023/01/31 00:18:46;;;;;;;17.25;3.67;;;5.00;99.90;;;;;;5027291;28;20461;-75
2023/01/31 00:21:18;;;;;;;25.58;4.95;;;3.30;99.90;;;;;;5047032;28;20555;-74
2023/01/31 00:23:45;;;;;;;25.90;5.22;;;3.30;99.90;;;;;;5023216;28;20433;-74
2023/01/31 00:26:17;;;;;;;19.38;4.07;;;3.40;99.90;;;;;;5017263;28;21038;-75
2023/01/31 00:28:44;;;;;;;25.70;4.57;;;3.40;99.90;;;;;;5021240;28;20434;-74
2023/01/31 00:31:12;;;;;;;34.50;4.57;;;5.50;99.90;;;;;;5021531;28;20419;-74
2023/01/31 00:33:39;;;;;;;22.27;4.15;;;3.20;99.90;;;;;;5023424;28;20766;-73
2023/01/31 00:36:08;;;;;;;25.17;4.38;;;3.20;99.90;;;;;;5023985;28;20957;-73
2023/01/31 00:38:34;;;;;;;18.37;4.90;;;3.30;99.90;;;;;;5022982;28;20461;-76
2023/01/31 00:41:00;;;;;;;29.85;4.60;;;3.10;99.90;;;;;;5024894;28;20422;-74
2023/01/31 00:43:26;;;;;;;24.92;4.60;;;3.20;99.90;;;;;;5023551;28;20426;-76
2023/01/31 00:45:52;;;;;;;18.83;5.03;;;3.30;99.90;;;;;;5023507;28;20477;-75
2023/01/31 00:48:17;;;;;;;20.55;3.97;;;3.10;99.90;;;;;;5024518;28;20419;-75
2023/01/31 00:50:43;;;;;;;27.13;5.70;;;3.20;99.90;;;;;;5028596;28;20438;-75
2023/01/31 00:53:09;;;;;;;22.10;4.90;;;4.70;99.90;;;;;;5025761;28;20429;-75
2023/01/31 00:55:34;;;;;;;21.20;5.37;;;3.30;99.90;;;;;;5029840;28;20425;-75
2023/01/31 00:58:00;;;;;;;22.07;4.90;;;3.20;99.90;;;;;;5023617;28;20436;-74
2023/01/31 01:00:26;;;;;;;16.57;3.17;;;3.70;99.90;;;;;;5022717;28;20951;-74
2023/01/31 01:02:52;;;;;;;20.45;4.57;;;3.30;99.90;;;;;;5029140;28;20854;-74
2023/01/31 01:05:17;;;;;;;20.90;5.10;;;3.90;99.90;;;;;;5025889;28;20427;-75
2023/01/31 01:07:43;;;;;;;22.33;4.28;;;3.30;99.90;;;;;;5028816;28;20429;-75
2023/01/31 01:10:10;;;;;;;26.05;3.45;;;3.30;99.90;;;;;;5029478;28;20589;-75
2023/01/31 01:12:36;;;;;;;23.98;4.20;;;3.30;99.90;;;;;;5037197;28;20433;-75
2023/01/31 01:15:02;;;;;;;24.90;5.10;;;3.30;99.90;;;;;;5030482;28;20431;-74
2023/01/31 01:17:28;;;;;;;20.88;3.63;;;3.20;99.90;;;;;;5036360;28;20429;-76
2023/01/31 01:19:54;;;;;;;20.07;4.00;;;3.30;99.90;;;;;;5023783;28;20802;-74
2023/01/31 01:22:19;;;;;;;28.63;5.05;;;4.20;99.90;;;;;;5020177;28;20415;-73
2023/01/31 01:24:45;;;;;;;18.63;4.13;;;3.20;99.90;;;;;;5027742;28;20427;-75
2023/01/31 01:27:12;;;;;;;18.95;3.92;;;3.20;99.90;;;;;;5027839;28;20586;-75
2023/01/31 01:29:38;;;;;;;21.10;4.00;;;4.10;99.90;;;;;;5028463;28;20419;-75
2023/01/31 01:32:05;;;;;;;21.50;4.18;;;3.30;99.90;;;;;;5031220;28;20487;-76
2023/01/31 01:34:32;;;;;;;23.35;3.83;;;3.20;99.90;;;;;;5024555;28;20431;-75
2023/01/31 01:36:58;;;;;;;18.92;3.10;;;3.30;99.90;;;;;;5024539;28;20416;-74
2023/01/31 01:39:24;;;;;;;27.00;5.23;;;3.40;99.90;;;;;;5032186;28;20486;-74
2023/01/31 01:41:51;;;;;;;20.93;4.37;;;3.30;99.90;;;;;;5031698;28;20420;-75
2023/01/31 01:44:42;;;;;;;23.70;3.90;;;3.40;99.90;;;;;;5028024;28;20933;-75
2023/01/31 01:47:29;;;;;;;17.30;3.78;;;3.20;99.90;;;;;;5017714;28;20419;-76
2023/01/31 01:50:20;;;;;;;20.95;3.30;;;3.40;99.90;;;;;;5026090;28;20462;-74
2023/01/31 01:53:15;;;;;;;21.15;5.47;;;3.70;99.90;;;;;;5011917;28;20517;-75
2023/01/31 01:55:49;;;;;;;23.42;4.90;;;3.50;99.90;;;;;;5015063;28;20422;-75
2023/01/31 01:58:28;;;;;;;17.20;3.70;;;3.60;99.90;;;;;;5026049;28;20430;-74
2023/01/31 02:00:54;;;;;;;33.67;4.57;;;3.60;99.90;;;;;;5024276;28;22237;-75
2023/01/31 02:03:21;;;;;;;21.35;4.18;;;3.50;99.90;;;;;;5024208;28;20423;-76
2023/01/31 02:05:57;;;;;;;20.63;3.70;;;5.00;99.90;;;;;;5027287;28;20441;-74
2023/01/31 02:08:26;;;;;;;19.75;3.50;;;5.00;99.90;;;;;;5025985;28;20797;-73
2023/01/31 02:10:57;;;;;;;20.55;3.60;;;3.60;99.90;;;;;;5019567;28;20413;-74
2023/01/31 02:13:23;;;;;;;21.83;3.03;;;3.70;99.90;;;;;;5024734;28;20450;-74
2023/01/31 02:15:49;;;;;;;19.52;3.70;;;3.80;99.90;;;;;;5040906;28;20423;-75
2023/01/31 02:18:17;;;;;;;24.67;5.10;;;3.70;99.90;;;;;;5025965;28;20433;-75
2023/01/31 02:21:13;;;;;;;16.15;2.88;;;3.70;99.90;;;;;;5028435;28;20441;-75
2023/01/31 02:24:17;;;;;;;16.83;3.25;;;2.60;99.90;;;;;;5033442;28;20450;-74
2023/01/31 02:26:42;;;;;;;16.23;3.53;;;3.80;99.90;;;;;;5035526;28;20431;-74
2023/01/31 02:29:19;;;;;;;11.70;2.72;;;4.00;99.90;;;;;;5019706;28;20829;-73
2023/01/31 02:32:18;;;;;;;18.83;4.15;;;3.80;99.90;;;;;;5025280;28;20468;-74
2023/01/31 02:35:07;;;;;;;17.50;3.25;;;3.90;99.90;;;;;;4987554;28;20449;-75
2023/01/31 02:37:46;;;;;;;20.17;4.70;;;4.00;99.90;;;;;;5021054;28;20441;-74
2023/01/31 02:40:20;;;;;;;20.13;3.63;;;4.10;99.90;;;;;;5026753;28;20474;-74
2023/01/31 02:43:04;;;;;;;25.60;4.28;;;4.00;99.90;;;;;;5023960;28;20423;-74
2023/01/31 02:45:44;;;;;;;15.70;3.40;;;4.20;99.90;;;;;;5039938;28;20417;-75
2023/01/31 02:48:28;;;;;;;17.77;3.45;;;4.00;99.90;;;;;;5024533;28;20758;-74
2023/01/31 02:50:58;;;;;;;19.45;3.88;;;4.60;99.90;;;;;;5026003;28;20498;-74
2023/01/31 02:53:33;;;;;;;20.02;3.80;;;6.10;99.90;;;;;;5032250;28;21214;-74
2023/01/31 02:56:25;;;;;;;18.30;4.35;;;4.20;99.90;;;;;;5025831;28;20769;-74
2023/01/31 02:59:25;;;;;;;21.25;4.47;;;4.10;99.90;;;;;;5010508;28;20517;-74
2023/01/31 03:01:58;;;;;;;19.38;4.57;;;4.30;99.90;;;;;;5022582;28;20466;-74
2023/01/31 03:04:24;;;;;;;20.25;5.22;;;4.10;99.90;;;;;;5026225;28;20921;-74
2023/01/31 03:06:59;;;;;;;21.05;4.70;;;4.30;99.90;;;;;;5025382;28;20469;-75
2023/01/31 03:09:36;;;;;;;15.45;3.67;;;4.30;99.90;;;;;;5017103;28;20853;-74
2023/01/31 03:12:32;;;;;;;20.42;3.80;;;4.30;99.90;;;;;;5026140;28;20451;-74
2023/01/31 03:17:30;;;;;;;18.58;3.80;;;4.30;99.90;;;;;;5026689;28;20749;-74
2023/01/31 03:18:18;;;;;;;16.93;3.43;;;4.20;99.90;;;;;;5025055;28;20422;-75
2023/01/31 03:21:07;;;;;;;25.40;4.68;;;4.30;99.90;;;;;;5025190;28;20980;-73
2023/01/31 03:23:36;;;;;;;26.70;4.07;;;5.50;99.90;;;;;;5026740;28;20469;-74
2023/01/31 03:26:05;;;;;;;25.08;4.53;;;4.30;99.90;;;;;;5021655;28;20427;-74
2023/01/31 03:28:35;;;;;;;23.37;4.10;;;4.50;99.90;;;;;;5026703;28;20515;-75
2023/01/31 03:31:14;;;;;;;22.10;5.13;;;4.40;99.90;;;;;;5026134;28;20891;-74
2023/01/31 03:33:45;;;;;;;21.25;5.25;;;4.40;99.90;;;;;;5025010;28;20445;-74
2023/01/31 03:36:32;;;;;;;21.47;4.70;;;4.50;99.90;;;;;;5030940;28;20516;-73
2023/01/31 03:39:11;;;;;;;22.50;4.32;;;4.50;99.90;;;;;;5025085;28;20997;-74
2023/01/31 03:42:01;;;;;;;24.75;4.60;;;4.50;99.90;;;;;;5024664;28;20427;-77
2023/01/31 03:44:37;;;;;;;20.98;4.00;;;4.50;99.90;;;;;;5026422;28;20423;-74
2023/01/31 03:47:17;;;;;;;22.48;4.85;;;4.60;99.90;;;;;;5026407;28;20484;-74
2023/01/31 03:49:45;;;;;;;22.58;5.03;;;4.60;99.90;;;;;;5027313;28;20477;-75
2023/01/31 03:52:14;;;;;;;24.98;4.43;;;4.70;99.90;;;;;;5026526;28;20419;-74
2023/01/31 03:54:45;;;;;;;19.90;4.32;;;4.80;99.90;;;;;;5023314;28;20481;-74
2023/01/31 03:57:21;;;;;;;20.73;5.93;;;5.00;99.90;;;;;;5017379;28;20420;-74
2023/01/31 03:59:52;;;;;;;29.10;6.90;;;6.80;99.90;;;;;;5025735;28;20434;-74
2023/01/31 04:02:22;;;;;;;30.23;5.47;;;5.30;99.90;;;;;;5026696;28;21048;-73
2023/01/31 04:04:53;;;;;;;22.70;4.50;;;5.00;99.90;;;;;;5025765;28;20917;-76
2023/01/31 04:07:19;;;;;;;31.63;6.25;;;5.00;99.90;;;;;;5031659;28;20528;-75
2023/01/31 04:09:45;;;;;;;20.67;5.80;;;6.20;99.90;;;;;;5035253;28;20948;-74
2023/01/31 04:12:13;;;;;;;32.30;7.60;;;5.00;99.90;;;;;;5026284;28;20512;-75
2023/01/31 04:14:39;;;;;;;28.93;4.93;;;5.00;99.90;;;;;;5026047;28;20822;-74
2023/01/31 04:17:04;;;;;;;32.70;6.97;;;5.00;99.90;;;;;;5023577;28;20496;-76
2023/01/31 04:19:30;;;;;;;22.50;5.53;;;5.10;99.90;;;;;;5024715;28;20423;-74
2023/01/31 04:21:56;;;;;;;19.13;4.82;;;5.10;99.90;;;;;;5024344;28;20848;-73
2023/01/31 04:24:21;;;;;;;24.90;5.55;;;5.00;99.90;;;;;;5029263;28;20442;-74
2023/01/31 04:26:47;;;;;;;24.48;4.70;;;5.00;99.90;;;;;;5029459;28;20484;-75
2023/01/31 04:29:13;;;;;;;27.55;5.28;;;5.20;99.90;;;;;;5033490;28;20431;-75
2023/01/31 04:31:40;;;;;;;29.70;6.03;;;5.00;99.90;;;;;;5026881;28;20451;-75
2023/01/31 04:34:06;;;;;;;32.00;6.10;;;5.20;99.90;;;;;;5026240;28;20442;-75
2023/01/31 04:36:32;;;;;;;30.30;7.15;;;5.10;99.90;;;;;;5026396;28;20422;-74
2023/01/31 04:38:59;;;;;;;30.75;6.68;;;5.00;99.90;;;;;;5032647;28;20417;-74
2023/01/31 04:41:25;;;;;;;27.50;7.10;;;5.10;99.90;;;;;;5028306;28;20600;-75
2023/01/31 04:43:51;;;;;;;23.63;5.78;;;5.10;99.90;;;;;;5030598;28;20410;-74
2023/01/31 04:46:17;;;;;;;30.90;6.40;;;6.60;99.90;;;;;;5026246;28;20431;-74
2023/01/31 04:48:43;;;;;;;25.37;5.90;;;5.00;99.90;;;;;;5018998;28;20424;-73
2023/01/31 04:51:08;;;;;;;27.35;5.45;;;5.40;99.90;;;;;;5018448;28;20459;-74
2023/01/31 04:53:34;;;;;;;29.33;5.45;;;5.00;99.90;;;;;;5029092;28;20423;-75
2023/01/31 04:56:00;;;;;;;25.70;6.43;;;5.10;99.90;;;;;;5028977;28;20571;-75
2023/01/31 04:58:26;;;;;;;29.93;6.90;;;5.10;99.90;;;;;;5028139;28;20430;-74
2023/01/31 05:00:53;;;;;;;31.60;7.87;;;5.00;99.90;;;;;;5026799;28;20446;-75
2023/01/31 05:03:19;;;;;;;27.70;6.75;;;5.00;99.90;;;;;;5028246;28;20440;-75
2023/01/31 05:05:47;;;;;;;26.23;6.80;;;5.00;99.90;;;;;;5019035;28;20467;-74
2023/01/31 05:08:13;;;;;;;31.23;5.70;;;5.00;99.90;;;;;;5028613;28;20781;-74
2023/01/31 05:10:39;;;;;;;35.57;7.03;;;5.20;99.90;;;;;;5028656;28;20442;-75
2023/01/31 05:13:06;;;;;;;29.10;7.53;;;5.30;99.90;;;;;;5026320;28;20434;-76
2023/01/31 05:15:31;;;;;;;32.05;6.38;;;5.20;99.90;;;;;;5037348;28;20441;-75
2023/01/31 05:18:03;;;;;;;28.03;5.50;;;5.10;99.90;;;;;;5026705;28;20427;-75
2023/01/31 05:20:35;;;;;;;28.50;6.15;;;5.20;99.90;;;;;;5011210;28;20444;-74
2023/01/31 05:23:01;;;;;;;27.15;6.40;;;5.10;99.90;;;;;;5028856;28;20417;-74
2023/01/31 05:25:27;;;;;;;31.50;7.38;;;5.00;99.90;;;;;;5032005;28;20435;-77
2023/01/31 05:27:53;;;;;;;30.27;5.90;;;5.20;99.90;;;;;;5024342;28;20427;-75
2023/01/31 05:30:19;;;;;;;33.88;7.75;;;5.10;99.90;;;;;;5028754;28;20518;-75
2023/01/31 05:32:47;;;;;;;33.50;6.45;;;4.90;99.90;;;;;;5027624;28;20936;-74
2023/01/31 05:35:13;;;;;;;25.50;6.72;;;5.00;99.90;;;;;;5029770;28;20940;-74
2023/01/31 05:37:41;;;;;;;29.42;6.63;;;7.30;99.90;;;;;;5027941;28;20447;-75
2023/01/31 05:40:16;;;;;;;28.15;6.45;;;5.00;99.90;;;;;;5023807;28;20514;-75
2023/01/31 05:42:42;;;;;;;28.73;5.97;;;5.20;99.90;;;;;;5024200;28;20422;-74
2023/01/31 05:45:09;;;;;;;29.52;6.20;;;5.00;99.90;;;;;;5028712;28;20431;-74
2023/01/31 05:47:35;;;;;;;26.27;6.38;;;5.00;99.90;;;;;;5025726;28;20425;-75
2023/01/31 05:50:01;;;;;;;33.47;6.25;;;5.80;99.90;;;;;;5029382;28;20888;-74
2023/01/31 05:52:27;;;;;;;34.00;7.53;;;5.20;99.90;;;;;;5027956;28;20426;-77
2023/01/31 05:54:53;;;;;;;27.90;5.80;;;5.20;99.90;;;;;;5027535;28;20458;-74
2023/01/31 05:57:19;;;;;;;33.20;7.73;;;5.30;99.90;;;;;;5028729;28;20555;-74
2023/01/31 05:59:45;;;;;;;30.20;6.55;;;5.20;99.90;;;;;;5018746;28;20450;-75
2023/01/31 06:02:10;;;;;;;34.37;6.27;;;5.20;99.90;;;;;;5031981;28;20470;-75
2023/01/31 06:04:37;;;;;;;28.50;7.63;;;5.10;99.90;;;;;;5027531;28;20474;-74
2023/01/31 06:07:03;;;;;;;30.17;7.80;;;5.20;99.90;;;;;;5024157;28;20422;-75
2023/01/31 06:09:29;;;;;;;34.70;8.10;;;6.30;99.90;;;;;;5025437;28;20931;-75
2023/01/31 06:11:54;;;;;;;36.03;7.37;;;5.30;99.90;;;;;;5027043;28;20433;-76
2023/01/31 06:14:20;;;;;;;32.00;7.33;;;5.20;99.90;;;;;;5027936;28;20419;-75
2023/01/31 06:16:46;;;;;;;28.20;6.80;;;5.40;99.90;;;;;;5027295;28;20419;-76
2023/01/31 06:19:11;;;;;;;29.20;7.82;;;5.30;99.90;;;;;;5026686;28;20808;-75
2023/01/31 06:21:37;;;;;;;32.90;7.05;;;5.20;99.90;;;;;;5026928;28;20411;-74
2023/01/31 06:24:03;;;;;;;33.17;7.70;;;5.50;99.90;;;;;;5023826;28;20805;-74
2023/01/31 06:26:29;;;;;;;25.67;6.40;;;5.40;99.90;;;;;;5033590;28;20427;-74
2023/01/31 06:28:54;;;;;;;19.57;4.90;;;5.40;99.90;;;;;;5032352;28;20962;-74
2023/01/31 06:31:20;;;;;;;23.17;6.73;;;6.20;99.90;;;;;;5038420;28;20423;-74
2023/01/31 06:33:46;;;;;;;24.95;6.55;;;5.60;99.90;;;;;;5027903;28;20422;-73
2023/01/31 06:36:12;;;;;;;24.37;5.93;;;7.10;99.90;;;;;;5028691;28;20502;-75
2023/01/31 06:38:37;;;;;;;29.43;6.63;;;5.60;99.90;;;;;;5024974;28;20434;-73
2023/01/31 06:41:03;;;;;;;29.83;6.20;;;5.50;99.90;;;;;;5033425;28;20425;-74
2023/01/31 06:43:29;;;;;;;28.60;5.97;;;5.70;99.90;;;;;;5026393;28;21023;-74
2023/01/31 06:45:54;;;;;;;28.13;6.20;;;5.80;99.90;;;;;;5026340;28;21028;-74
2023/01/31 06:48:20;;;;;;;33.27;6.77;;;5.50;99.90;;;;;;5022695;28;20506;-73
2023/01/31 06:50:46;;;;;;;29.40;6.03;;;6.80;99.90;;;;;;5027007;28;20455;-75
2023/01/31 06:53:11;;;;;;;25.67;4.23;;;6.80;99.90;;;;;;5025957;28;20925;-74
2023/01/31 06:55:38;;;;;;;24.70;5.93;;;5.50;99.90;;;;;;5024998;28;21412;-74
2023/01/31 06:58:03;;;;;;;26.52;6.47;;;5.50;99.90;;;;;;5023944;28;20466;-73
2023/01/31 07:00:29;;;;;;;27.75;5.38;;;5.50;99.90;;;;;;5024393;28;20427;-77
2023/01/31 07:02:55;;;;;;;25.38;5.80;;;5.50;99.90;;;;;;5028471;28;20411;-75
2023/01/31 07:05:22;;;;;;;28.50;5.83;;;5.60;99.90;;;;;;5026702;28;21240;-74
2023/01/31 07:07:48;;;;;;;26.85;4.47;;;6.80;99.90;;;;;;5027629;28;21013;-75
2023/01/31 07:10:15;;;;;;;24.65;4.90;;;5.60;99.90;;;;;;5025533;28;20502;-75
2023/01/31 07:12:41;;;;;;;20.80;4.93;;;7.70;99.90;;;;;;5035253;28;21132;-75
2023/01/31 07:15:09;;;;;;;23.95;4.38;;;5.70;99.90;;;;;;5029408;28;20809;-75
2023/01/31 07:17:34;;;;;;;21.40;5.53;;;5.70;99.90;;;;;;5029179;28;20438;-75
2023/01/31 07:20:00;;;;;;;21.83;4.93;;;5.60;99.90;;;;;;5026384;28;20439;-76
2023/01/31 07:22:26;;;;;;;28.20;6.13;;;6.10;99.90;;;;;;5020706;28;20967;-77
2023/01/31 07:24:51;;;;;;;21.63;4.53;;;5.50;99.90;;;;;;5008074;28;21190;-76
2023/01/31 07:27:17;;;;;;;27.77;5.63;;;5.70;99.90;;;;;;5027091;28;20825;-76
2023/01/31 07:29:43;;;;;;;22.53;5.03;;;5.70;99.90;;;;;;5036682;28;20496;-75
2023/01/31 07:32:09;;;;;;;20.05;4.75;;;5.60;99.90;;;;;;5025701;28;20407;-76
2023/01/31 07:34:35;;;;;;;24.92;5.30;;;5.60;99.90;;;;;;5026689;28;20427;-76
2023/01/31 07:37:01;;;;;;;26.33;6.15;;;5.50;99.90;;;;;;5024304;28;20972;-76
2023/01/31 07:39:27;;;;;;;23.80;5.25;;;5.70;99.90;;;;;;5017608;28;20519;-75
2023/01/31 07:41:53;;;;;;;20.58;4.63;;;5.60;99.90;;;;;;4990207;28;20420;-76
2023/01/31 07:44:19;;;;;;;17.67;4.28;;;5.70;99.90;;;;;;5034757;28;20852;-77
2023/01/31 07:46:45;;;;;;;18.63;4.15;;;5.60;99.90;;;;;;5036965;28;20441;-78
2023/01/31 07:49:11;;;;;;;21.77;5.18;;;6.10;99.90;;;;;;5027133;28;20898;-76
2023/01/31 07:51:41;;;;;;;21.42;4.80;;;5.60;99.90;;;;;;5026833;28;20431;-75
2023/01/31 07:54:08;;;;;;;16.60;4.20;;;5.60;99.90;;;;;;5026936;28;20435;-76
2023/01/31 07:56:34;;;;;;;20.42;3.80;;;5.70;99.90;;;;;;5025354;28;20423;-76
2023/01/31 07:59:00;;;;;;;18.35;4.15;;;5.80;99.90;;;;;;5029705;28;20450;-73
2023/01/31 08:04:13;;;;;;;16.70;3.83;;;5.90;99.90;;;;;;5035926;28;20437;-75
2023/01/31 08:06:41;;;;;;;20.77;4.30;;;6.00;99.90;;;;;;5028902;28;20893;-73
2023/01/31 08:09:07;;;;;;;22.98;5.45;;;5.70;99.90;;;;;;5030873;28;20450;-75
2023/01/31 08:11:33;;;;;;;19.83;4.22;;;5.90;99.90;;;;;;5027579;28;20423;-74
2023/01/31 08:13:58;;;;;;;16.10;3.97;;;5.90;99.90;;;;;;5033244;28;20777;-75
2023/01/31 08:16:24;;;;;;;19.60;4.00;;;8.00;99.90;;;;;;5028793;28;20415;-75
2023/01/31 08:18:51;;;;;;;17.33;3.97;;;5.90;99.90;;;;;;5030540;28;20485;-74
2023/01/31 08:21:18;;;;;;;18.65;3.30;;;6.20;99.90;;;;;;5030459;28;20465;-75
2023/01/31 08:23:43;;;;;;;18.08;4.15;;;5.80;99.90;;;;;;5028941;28;20434;-77
2023/01/31 08:26:15;;;;;;;19.23;4.57;;;6.20;99.90;;;;;;5030869;28;20434;-75
2023/01/31 08:28:42;;;;;;;17.40;3.90;;;5.90;99.90;;;;;;5025185;28;20775;-74
2023/01/31 08:31:13;;;;;;;19.83;4.07;;;5.40;99.90;;;;;;5020877;28;20644;-75
2023/01/31 08:33:39;;;;;;;17.25;4.18;;;6.00;99.90;;;;;;5041881;28;20545;-74
2023/01/31 08:36:16;;;;;;;19.13;4.27;;;5.80;99.90;;;;;;5028555;28;20513;-76
2023/01/31 08:38:43;;;;;;;24.17;5.65;;;5.90;99.90;;;;;;5032790;28;20432;-75
2023/01/31 08:41:12;;;;;;;15.15;4.22;;;5.90;99.90;;;;;;5030850;28;20429;-76
2023/01/31 08:43:39;;;;;;;19.33;4.03;;;7.10;99.90;;;;;;5040502;28;20432;-76
2023/01/31 08:46:05;;;;;;;18.52;4.13;;;6.00;99.90;;;;;;5010100;28;20487;-76
2023/01/31 08:48:35;;;;;;;17.50;3.92;;;6.10;99.90;;;;;;5022775;28;20438;-74
2023/01/31 08:51:02;;;;;;;17.85;4.30;;;7.50;99.90;;;;;;5030837;28;20506;-75
2023/01/31 08:53:28;;;;;;;16.65;4.10;;;6.10;99.90;;;;;;5014766;28;20439;-77
2023/01/31 08:56:01;;;;;;;22.77;3.83;;;7.70;99.90;;;;;;5030711;28;20454;-75
2023/01/31 08:58:28;;;;;;;21.20;4.47;;;8.40;99.90;;;;;;5028433;28;20423;-74
2023/01/31 09:00:53;;;;;;;20.40;4.17;;;6.10;99.90;;;;;;5027660;28;20446;-75
2023/01/31 09:03:19;;;;;;;20.50;5.75;;;6.10;99.90;;;;;;5027361;28;20427;-76
2023/01/31 09:05:45;;;;;;;23.30;4.20;;;6.10;99.90;;;;;;5027290;28;20430;-75
2023/01/31 09:08:11;;;;;;;17.38;5.32;;;6.10;99.90;;;;;;5026724;28;20897;-76
2023/01/31 09:10:38;;;;;;;24.60;4.40;;;6.20;99.90;;;;;;5021122;28;20443;-76
2023/01/31 09:13:04;;;;;;;21.75;5.13;;;6.60;99.90;;;;;;5029929;28;20407;-76
2023/01/31 09:15:30;;;;;;;33.70;5.43;;;6.30;99.90;;;;;;5025561;28;20589;-76
2023/01/31 09:17:55;;;;;;;19.92;5.18;;;6.40;99.90;;;;;;5039343;28;20445;-74
2023/01/31 09:20:21;;;;;;;22.63;6.28;;;6.30;99.90;;;;;;5029441;28;20519;-75
2023/01/31 09:22:47;;;;;;;30.05;6.20;;;6.50;99.90;;;;;;5042680;28;21055;-75
2023/01/31 09:25:12;;;;;;;25.65;5.88;;;6.60;99.90;;;;;;5029267;28;20921;-76
2023/01/31 09:27:38;;;;;;;22.60;4.93;;;7.60;99.90;;;;;;5029630;28;20407;-75
2023/01/31 09:30:08;;;;;;;28.70;6.00;;;6.60;99.90;;;;;;5041008;28;20436;-77
2023/01/31 09:32:35;;;;;;;27.25;5.97;;;6.50;99.90;;;;;;5048325;28;20938;-76
2023/01/31 09:35:01;;;;;;;24.52;5.07;;;7.50;99.90;;;;;;5026165;28;20844;-76
2023/01/31 09:37:30;;;;;;;22.88;4.07;;;6.60;99.90;;;;;;5027789;28;20434;-76
2023/01/31 09:39:56;;;;;;;27.02;6.10;;;6.90;99.90;;;;;;5013400;28;20432;-76
2023/01/31 09:42:32;;;;;;;25.73;5.73;;;6.70;99.90;;;;;;5036323;28;20454;-75
2023/01/31 09:45:31;;;;;;;22.70;5.22;;;6.60;99.90;;;;;;5033948;28;20454;-75
2023/01/31 09:48:00;;;;;;;24.95;5.28;;;6.60;99.90;;;;;;5029123;28;20423;-75
2023/01/31 09:50:41;;;;;;;20.73;4.57;;;6.60;99.90;;;;;;5029370;28;20422;-77
2023/01/31 09:53:14;;;;;;;23.17;4.20;;;6.60;99.90;;;;;;5024781;28;20470;-78
2023/01/31 09:56:03;;;;;;;20.33;4.50;;;6.60;99.90;;;;;;5024767;28;20419;-77
2023/01/31 09:58:54;;;;;;;23.02;5.15;;;8.50;99.90;;;;;;4989686;28;20454;-76
2023/01/31 10:01:25;;;;;;;23.85;5.43;;;6.60;99.90;;;;;;5046068;28;20482;-77
2023/01/31 10:04:12;;;;;;;23.42;5.40;;;6.60;99.90;;;;;;5048851;28;20413;-77
2023/01/31 10:07:00;;;;;;;31.60;5.90;;;6.60;99.90;;;;;;5028438;28;20423;-78
2023/01/31 10:09:36;;;;;;;22.15;4.57;;;6.90;99.90;;;;;;5027622;28;20427;-76
2023/01/31 10:12:23;;;;;;;29.45;5.28;;;7.20;99.90;;;;;;5027714;28;20424;-77
2023/01/31 10:14:59;;;;;;;23.00;5.40;;;6.60;99.90;;;;;;5027769;28;20451;-77
2023/01/31 10:17:32;;;;;;;26.00;5.72;;;6.50;99.90;;;;;;5023766;28;20425;-77
2023/01/31 10:20:02;;;;;;;33.28;5.22;;;8.10;99.90;;;;;;5046438;28;20433;-77
2023/01/31 10:22:45;;;;;;;27.73;5.00;;;6.50;99.90;;;;;;5045426;28;20410;-78
2023/01/31 10:25:36;;;;;;;29.55;7.15;;;6.60;99.90;;;;;;5026966;28;20435;-78
2023/01/31 10:28:14;;;;;;;27.45;6.90;;;6.50;99.90;;;;;;5027411;28;20399;-78
2023/01/31 10:31:13;;;;;;;26.38;5.40;;;6.60;99.90;;;;;;5027606;28;20506;-79
2023/01/31 10:33:57;;;;;;;34.55;5.15;;;6.60;99.90;;;;;;5048411;28;20409;-77
2023/01/31 10:36:32;;;;;;;29.60;6.28;;;6.70;99.90;;;;;;5034095;28;20446;-78
2023/01/31 10:39:16;;;;;;;34.50;6.45;;;6.60;99.90;;;;;;5026810;28;20427;-78
2023/01/31 10:41:51;;;;;;;26.45;5.93;;;6.60;99.90;;;;;;5027579;28;20743;-77
2023/01/31 10:44:26;;;;;;;27.38;6.25;;;6.80;99.90;;;;;;5030639;28;20437;-78
2023/01/31 10:46:57;;;;;;;31.30;7.10;;;6.80;99.90;;;;;;5046720;28;20401;-77
2023/01/31 10:49:26;;;;;;;25.35;5.13;;;6.70;99.90;;;;;;5038349;28;20414;-77
2023/01/31 10:52:10;;;;;;;28.45;5.90;;;7.10;99.90;;;;;;5027809;28;20538;-76
2023/01/31 10:54:55;;;;;;;23.20;6.13;;;6.80;99.90;;;;;;5018164;28;20846;-76
2023/01/31 10:57:21;;;;;;;24.25;5.38;;;8.00;99.90;;;;;;5027264;28;20422;-75
2023/01/31 10:59:48;;;;;;;29.33;5.55;;;6.70;99.90;;;;;;5036255;28;20434;-75
2023/01/31 11:02:18;;;;;;;25.13;5.03;;;6.80;99.90;;;;;;5045994;28;20772;-75
2023/01/31 11:04:43;;;;;;;26.63;5.32;;;6.70;99.90;;;;;;5040881;28;20426;-76
2023/01/31 11:07:09;;;;;;;31.27;5.35;;;6.70;99.90;;;;;;5042433;28;20415;-76
2023/01/31 11:09:42;;;;;;;28.08;4.60;;;6.90;99.90;;;;;;5026200;28;20430;-75
2023/01/31 11:12:08;;;;;;;23.63;6.50;;;6.90;99.90;;;;;;5028662;28;20516;-74
2023/01/31 11:14:35;;;;;;;25.48;4.13;;;6.90;99.90;;;;;;5014998;28;20434;-76
2023/01/31 11:17:19;;;;;;;23.40;4.57;;;6.80;99.90;;;;;;5029424;28;20427;-76
2023/01/31 11:19:54;;;;;;;30.63;6.75;;;6.80;99.90;;;;;;5008271;28;20437;-76
2023/01/31 11:22:22;;;;;;;34.15;7.60;;;6.90;99.90;;;;;;5013881;28;20404;-76
2023/01/31 11:24:49;;;;;;;22.45;5.80;;;7.10;99.90;;;;;;5027507;28;20434;-75
2023/01/31 11:27:35;;;;;;;18.33;5.13;;;7.00;99.90;;;;;;5047571;28;20397;-77
2023/01/31 11:30:03;;;;;;;24.23;4.68;;;7.00;99.90;;;;;;5029687;28;20468;-75
2023/01/31 11:32:31;;;;;;;21.20;4.18;;;7.10;99.90;;;;;;5028183;28;20438;-74
2023/01/31 11:35:22;;;;;;;21.88;3.95;;;7.10;99.90;;;;;;5026435;28;20434;-75
2023/01/31 11:38:11;;;;;;;23.05;5.55;;;7.20;99.90;;;;;;5041333;28;20460;-75
2023/01/31 11:40:39;;;;;;;20.55;5.20;;;7.40;99.90;;;;;;5039384;28;20433;-76
2023/01/31 11:43:22;;;;;;;30.58;6.05;;;7.40;99.90;;;;;;5045101;28;20474;-76
2023/01/31 11:45:59;;;;;;;21.80;4.68;;;7.30;99.90;;;;;;5017018;28;20438;-76
2023/01/31 11:48:42;;;;;;;21.90;5.35;;;7.40;99.90;;;;;;5027681;28;20498;-74
2023/01/31 11:51:09;;;;;;;23.30;4.43;;;7.50;99.90;;;;;;5027486;28;20920;-75
2023/01/31 11:53:53;;;;;;;22.02;5.55;;;9.40;99.90;;;;;;5027736;28;20427;-75
2023/01/31 11:56:24;;;;;;;21.52;5.38;;;7.60;99.90;;;;;;5022499;28;20559;-75
2023/01/31 11:58:56;;;;;;;19.67;4.22;;;7.70;99.90;;;;;;5019611;28;20431;-76
2023/01/31 12:01:24;;;;;;;22.63;5.57;;;9.60;99.90;;;;;;5023313;28;20443;-73
2023/01/31 12:03:59;;;;;;;17.05;4.20;;;7.70;99.90;;;;;;5011934;28;20431;-74
2023/01/31 12:06:32;;;;;;;21.00;5.27;;;7.70;99.90;;;;;;5023627;28;20803;-77
2023/01/31 12:08:59;;;;;;;25.70;5.65;;;7.70;99.90;;;;;;5026056;28;20502;-76
2023/01/31 12:11:34;;;;;;;24.48;6.93;;;7.80;99.90;;;;;;5030478;28;20433;-76
2023/01/31 12:14:13;;;;;;;23.37;4.70;;;7.80;99.90;;;;;;5046416;28;20713;-76
2023/01/31 12:16:39;;;;;;;27.45;4.63;;;8.50;99.90;;;;;;5032726;28;20773;-76
2023/01/31 12:19:10;;;;;;;22.30;4.72;;;9.80;99.90;;;;;;5027299;28;20434;-75
2023/01/31 12:21:54;;;;;;;23.50;4.57;;;8.00;99.90;;;;;;5026321;28;20430;-75
2023/01/31 12:24:54;;;;;;;26.15;5.32;;;7.90;99.90;;;;;;5028832;28;20437;-75
2023/01/31 12:27:29;;;;;;;20.25;4.97;;;8.00;99.90;;;;;;5001401;28;20463;-74
2023/01/31 12:30:08;;;;;;;21.65;4.38;;;8.00;99.90;;;;;;5026384;28;20482;-79
2023/01/31 12:33:07;;;;;;;20.77;5.03;;;7.90;99.90;;;;;;5041857;28;20437;-80
2023/01/31 12:35:57;;;;;;;20.77;5.10;;;8.00;99.90;;;;;;5031244;28;20890;-78
2023/01/31 12:38:32;;;;;;;21.20;4.40;;;8.10;99.90;;;;;;5008534;28;20413;-78
2023/01/31 12:41:35;;;;;;;22.00;6.05;;;8.70;99.90;;;;;;5017708;28;20828;-82
2023/01/31 12:44:33;;;;;;;19.75;3.85;;;8.30;99.90;;;;;;5042197;28;20438;-80
2023/01/31 12:47:08;;;;;;;19.25;4.60;;;8.30;99.90;;;;;;4985026;28;20457;-83
2023/01/31 12:49:55;;;;;;;21.13;5.00;;;8.30;99.90;;;;;;5026745;28;20502;-78
2023/01/31 12:52:37;;;;;;;21.70;4.43;;;8.20;99.90;;;;;;5039042;28;20451;-81
2023/01/31 12:55:23;;;;;;;20.40;5.28;;;8.20;99.90;;;;;;5049492;28;20401;-79
2023/01/31 12:58:07;;;;;;;21.70;5.63;;;8.30;99.90;;;;;;5043074;28;20770;-81
2023/01/31 13:00:47;;;;;;;25.77;5.80;;;9.10;99.90;;;;;;5028180;28;20793;-82
2023/01/31 13:03:31;;;;;;;17.30;4.25;;;8.50;99.90;;;;;;5030457;28;20426;-80
2023/01/31 13:06:08;;;;;;;22.20;5.80;;;8.30;99.90;;;;;;5029140;28;20435;-80
2023/01/31 13:08:36;;;;;;;19.00;4.03;;;8.30;99.90;;;;;;5022194;28;20777;-80
2023/01/31 13:11:08;;;;;;;19.20;4.60;;;8.80;99.90;;;;;;5027734;28;20980;-80
2023/01/31 13:13:56;;;;;;;23.50;5.15;;;8.30;99.90;;;;;;5028894;28;20407;-82